Tuesday, June 28, 2016
22:20 UTC
  |  Log In   |  Register Free
Airport Search:

Orlando Sanford International Airport
(KSFB)

FAA data valid effective May 26 2016 - Jul 21 2016 (unless otherwise noted).

 
 
 
 
 
 
 
 
 
 
 
 
 
 
Current Aviation Weather for KSFB

Weather Summary


The most recent METAR observation for SFB was updated at: 12:53 UTC
METAR for KSFB is not available. Closest METAR is for KDED
KSFB  (most recent observation was updatred at 28:21 UTC)
282153Z 04006KT 10SM VCTS BKN120 29/23 A2993 RMK AO2 WSHFT2049 LTG DSNT ALQDS TSE13 SLP134 T02940228

KDED  (17.6 nm SE)   (most recent observation was updated at 28:21 UTC)
282155Z AUTO 05003KT 28/23 A2994 RMK AO1

KMCO  (21.2 nm NE)   (most recent observation was updated at 28:21 UTC)
282153Z 02008KT 10SM TS SCT050CB BKN090 BKN300 29/23 A2993 RMK AO2 TSB28 SLP134 FRQ LTGICCG N-NE TS N-NE MOV E CB SW-W MOV E VCSH N-NE T02940228

TAF for KSFB is not available.
KSFB
281721Z 2818/2918 22005KT P6SM SCT040 SCT250 FM282000 15008KT P6SM VCTS SCT035CB BKN080 TEMPO 2820/2823 3SM TSRA BKN030CB OVC050 FM290000 18005KT P6SM SCT080 BKN120 FM291400 25005KT P6SM SCT030 SCT250

KMCO  (21.2 nm NE)   (most recent observation was updatred at 28:20 UTC)
AMD 282037Z 2821/2918 17007KT P6SM VCTS SCT035CB BKN080 TEMPO 2821/2823 TS SCT035CB BKN050 FM290000 18005KT P6SM SCT080 BKN120 FM291400 24005KT P6SM SCT030 SCT250


KDAB  (25.9 nm SW)   (most recent observation was updatred at 28:20 UTC)
AMD 282043Z 2821/2918 11009KT P6SM VCSH SCT040 SCT060 FM290000 17005KT P6SM SCT080 BKN120 FM291400 24006KT P6SM SCT030 SCT070
GlobalAir.com is loading additional information.
 Current Weather at SFB
90.0 F° (32.2 C°)

Northwest winds at 15.0 mph
Pressure:
29.94 in
Humidity:
52%
Wind:
Northwest at 15.0 mph
Dew Point:
70.0 F° (21.1 C°)
Visibility:
10.00 mi
SFB NOAA Radar




Find All Airport Services Find A Hotel Find A Rental Car Find A Golf Course Find A Restaurant $100 Hamburger



Airport Weather Forecast for KSFB

Translated METAR for KSFB (2153 UTC)
METAR:
KSFB 282153Z 04006KT 10SM VCTS BKN120 29/23 A2993 RMK AO2 WSHFT2049 LTG DSNT ALQDS TSE13 SLP134 T02940228
Conditions at:
KSFB (Orlando Sanford Intl, FL) observed 2153 UTC 28 June 2016
Temperature:
29°C (84.2°F)
Dewpoint:
23°C (73.4°F) [RH = 70.1]
Pressure:
29.93 inches Hg (1013.5 mb)
pressure at sea level is 134 in Hg
Winds:
from the NE (040 degrees) at 6.9 mph (6 knots: 3.1 m/s)
Visibility:
10 mile(s)
Ceiling:
12,000 feet AGL
Clouds:
Broken Cloud Cover at 12,000 feet AGL
Remarks:
site is automated and HAS a precipitation sensor

Translated TAF for KSFB (Orlando Sanford Intl, FL) (1721 UTC)
TAF text:
KSFB 281721Z 2818/2918 22005KT P6SM SCT040 SCT250
Forecast period:
Tuesday Jun 28 2016 18:00 UTC - Wednesday Jun 29 2016 18:00 UTC
Forecast type:
FROM: standard forecast or significant change
Winds:
from the SW (220 degrees) at 5.8 mph (5 knots: 2.6 m/s)
Visibility:
6 or more mile(s) (9.7+ km)
Ceiling:
at least 12,000 feet AGL
Clouds:
Scattered Clouds at 4,000 feet AGL
Scattered Clouds at 25,000 feet AGL
Weather:
no significant weather observed at this time
TAF text:
FM282000 15008KT P6SM VCTS SCT035CB BKN080
Forecast period:
Tuesday Jun 28 2016 20:00 UTC - Wednesday Jun 29 2016 00:00 UTC
Forecast type:
FROM: standard forecast or significant change
Winds:
from the SSE (150 degrees) at 9.2 mph (8 knots: 4.1 m/s)
Visibility:
6 or more mile(s) (9.7+ km)
Ceiling:
8,000 feet AGL
Clouds:
Broken Cloud Cover at 8,000 feet AGL
Weather:
Moderate In Vicinity Thunderstorm
TAF text:
2820/2823 3SM TSRA BKN030CB OVC050
Forecast period:
Wednesday Jun 29 2016 20:00 UTC - Wednesday Jun 29 2016 23:00 UTC
Forecast type:
FROM: standard forecast or significant change
Winds:
Visibility:
3 mile(s) (4.8 km)
Ceiling:
5,000 feet AGL
Clouds:
Overcast Skies at 5,000 feet AGL
Weather:
Moderate Thunderstorm Rain
TAF text:
FM290000 18005KT P6SM SCT080 BKN120
Forecast period:
Wednesday Jun 29 2016 00:00 UTC - Wednesday Jun 29 2016 14:00 UTC
Forecast type:
FROM: standard forecast or significant change
Winds:
from the S (180 degrees) at 5.8 mph (5 knots: 2.6 m/s)
Visibility:
6 or more mile(s) (9.7+ km)
Ceiling:
12,000 feet AGL
Clouds:
Scattered Clouds at 8,000 feet AGL
Broken Cloud Cover at 12,000 feet AGL
Weather:
no significant weather observed at this time
TAF text:
FM291400 25005KT P6SM SCT030 SCT250
Forecast period:
Wednesday Jun 29 2016 14:00 UTC - Wednesday Jun 29 2016 18:00 UTC
Forecast type:
FROM: standard forecast or significant change
Winds:
from the WSW (250 degrees) at 5.8 mph (5 knots: 2.6 m/s)
Visibility:
6 or more mile(s) (9.7+ km)
Ceiling:
at least 12,000 feet AGL
Clouds:
Scattered Clouds at 3,000 feet AGL
Scattered Clouds at 25,000 feet AGL
Weather:
no significant weather observed at this time
FBO's on the Field
FBO Company Facility Photos Services Transportation Aviation Fuel Prices: Prices include tax
Catering Weather Repair Courtesy Rental Type 100LL JetA JetA+ MOGAS 8087
 
StarPort

StarPort logo
Currently rated 5 by 7 people
FS:
Last Updated: Jun-27
Login to update fuel prices
SS:
Contact StarPortMore FBO Information
 
Million Air Sanford

Currently rated 5 by 3 people
FS:Ascent
Last Updated: Jun-28
Login to update fuel prices
SS:
Contact Million Air SanfordMore FBO Information
 
Add another FBO Facility Photos Catering Weather Repair Courtesy Rental Type 100LL JetA JetA+ MOGAS 8087
Services Transportation Aviation Fuel Prices: Prices include tax


model-print
model-print
model-print
model-print